Terminal Aerodrome Forecast
Issued by NWS

Home | Current Version | Previous Version | Text Only | Print | Product List | Glossary On
Versions: 1 2 3 4 5 6 7 8 9 10 11 12 13 14 15 16 17 18 19 20
000
FTUS45 KRIW 250520
TAFRKS
TAF
KRKS 250520Z 2506/2606 28008KT P6SM BKN060
     FM250800 VRB05KT P6SM VCFG FEW005 SCT060
     FM251600 27009KT P6SM FEW100
     FM260200 VRB05KT P6SM FEW100=

USA.gov is the U.S. government's official web portal to all federal, state and local government web resources and services.